createdAt,value
2022-12-03T00:00:13.798Z,82725.03
2022-12-03T00:01:50.993Z,82709.19
2022-12-03T00:03:28.057Z,82679.47
2022-12-03T00:05:01.967Z,82667.59
2022-12-03T00:06:36.396Z,82701.25
2022-12-03T00:08:13.242Z,82681.47
2022-12-03T00:09:47.404Z,82695.31
2022-12-03T00:11:20.980Z,82691.38
2022-12-03T00:12:54.928Z,82721.06
2022-12-03T00:14:28.872Z,82730.97
2022-12-03T00:16:02.663Z,82730.97
2022-12-03T00:17:36.294Z,82715.13
2022-12-03T00:19:10.375Z,82703.25
2022-12-03T00:20:44.104Z,82691.38
2022-12-03T00:22:17.644Z,82683.44
2022-12-03T00:23:51.004Z,82675.53
2022-12-03T00:25:24.883Z,82675.53
2022-12-03T00:26:58.256Z,82671.56
2022-12-03T00:28:31.598Z,82663.63
2022-12-03T00:30:06.614Z,82699.28
2022-12-03T00:31:40.310Z,82657.69
2022-12-03T00:33:19.804Z,82637.91
2022-12-03T00:34:53.564Z,82626.00
2022-12-03T00:36:30.402Z,82620.06
2022-12-03T00:38:04.317Z,82600.25
2022-12-03T00:39:38.188Z,82588.38
2022-12-03T00:41:11.900Z,82572.53
2022-12-03T00:42:45.344Z,82556.69
2022-12-03T00:44:18.904Z,82584.44
2022-12-03T00:45:52.552Z,82546.78
2022-12-03T00:47:26.181Z,82548.78
2022-12-03T00:48:59.699Z,82548.78
2022-12-03T00:50:33.224Z,82542.84
2022-12-03T00:52:06.848Z,82540.84
2022-12-03T00:53:40.464Z,82536.91
2022-12-03T00:55:14.104Z,82552.75
2022-12-03T00:56:47.426Z,82550.75
2022-12-03T00:58:21.664Z,82568.59
2022-12-03T00:59:55.412Z,82584.44
2022-12-03T01:01:29.412Z,82604.22
2022-12-03T01:03:03.762Z,82641.84
2022-12-03T01:04:38.040Z,82729.00
2022-12-03T01:06:11.550Z,82794.34
2022-12-03T01:07:51.204Z,82849.81
2022-12-03T01:09:31.376Z,82816.13
2022-12-03T01:11:24.908Z,82822.06
2022-12-03T01:12:58.749Z,82808.22
2022-12-03T01:14:32.429Z,82798.31
2022-12-03T01:16:06.366Z,82796.31
2022-12-03T01:17:40.247Z,82873.56
2022-12-03T01:19:18.067Z,82893.38
2022-12-03T01:20:51.811Z,82917.13
2022-12-03T01:22:26.427Z,82940.91
2022-12-03T01:24:00.174Z,82952.78
2022-12-03T01:25:34.109Z,82988.44
2022-12-03T01:27:07.973Z,82980.50
2022-12-03T01:28:44.591Z,82992.41
2022-12-03T01:30:18.616Z,83026.06
2022-12-03T01:32:13.655Z,83018.16
2022-12-03T01:33:47.129Z,83091.44
2022-12-03T01:35:20.731Z,83099.34
2022-12-03T01:36:53.995Z,83107.28
2022-12-03T01:38:27.443Z,83099.34
2022-12-03T01:40:01.207Z,83077.56
2022-12-03T01:41:36.695Z,83026.06
2022-12-03T01:43:10.603Z,83022.09
2022-12-03T01:44:45.426Z,83020.13
2022-12-03T01:46:22.511Z,83022.09
2022-12-03T01:47:56.471Z,83039.94
2022-12-03T01:49:37.375Z,83010.22
2022-12-03T01:51:13.032Z,83002.31
2022-12-03T01:52:46.913Z,83030.03
2022-12-03T01:54:26.063Z,83043.88
2022-12-03T01:55:59.950Z,83065.69
2022-12-03T01:57:46.092Z,83095.38
2022-12-03T01:59:22.285Z,83131.03
2022-12-03T02:01:11.285Z,83138.97
2022-12-03T02:02:46.011Z,83148.88
2022-12-03T02:04:23.259Z,83170.66
2022-12-03T02:05:57.394Z,83170.66
2022-12-03T02:07:33.838Z,83190.47
2022-12-03T02:09:09.184Z,83220.16
2022-12-03T02:10:43.331Z,83218.19
2022-12-03T02:12:20.271Z,83178.56
2022-12-03T02:13:58.440Z,83119.16
2022-12-03T02:15:32.093Z,83075.59
2022-12-03T02:17:05.762Z,83039.94
2022-12-03T02:18:39.249Z,83018.16
2022-12-03T02:20:13.561Z,83053.78
2022-12-03T02:22:02.437Z,83020.13
2022-12-03T02:23:59.347Z,82992.41
2022-12-03T02:25:36.116Z,83016.16
2022-12-03T02:27:10.221Z,82984.47
2022-12-03T02:28:46.835Z,82984.47
2022-12-03T02:30:23.704Z,82984.47
2022-12-03T02:31:57.366Z,82986.47
2022-12-03T02:33:31.774Z,82988.44
2022-12-03T02:35:19.405Z,82978.53
2022-12-03T02:36:52.936Z,82968.63
2022-12-03T02:38:28.757Z,82968.63
2022-12-03T02:40:10.261Z,82992.41
2022-12-03T02:42:02.829Z,82986.47
2022-12-03T02:43:39.975Z,82972.59
2022-12-03T02:45:31.379Z,82968.63
2022-12-03T02:47:05.516Z,82980.50
2022-12-03T02:48:42.365Z,82980.50
2022-12-03T02:50:20.909Z,82964.66
2022-12-03T02:51:54.627Z,82976.56
2022-12-03T02:53:31.796Z,83035.97
2022-12-03T02:55:07.553Z,83146.88
2022-12-03T02:56:41.020Z,83222.16
2022-12-03T02:58:15.694Z,83275.63
2022-12-03T02:59:49.234Z,83297.41
2022-12-03T03:01:23.101Z,83295.44
2022-12-03T03:03:00.062Z,83297.41
2022-12-03T03:04:33.989Z,83273.66
2022-12-03T03:06:08.906Z,83257.81
2022-12-03T03:07:45.737Z,83297.41
2022-12-03T03:09:20.735Z,83230.06
2022-12-03T03:10:55.118Z,83295.44
2022-12-03T03:12:37.637Z,83374.66
2022-12-03T03:14:13.195Z,83376.66
2022-12-03T03:15:47.477Z,83370.69
2022-12-03T03:17:21.041Z,83356.84
2022-12-03T03:18:58.577Z,83337.03
2022-12-03T03:20:32.543Z,83352.88
2022-12-03T03:22:06.190Z,83370.69
2022-12-03T03:23:39.985Z,83400.41
2022-12-03T03:25:17.970Z,83378.63
2022-12-03T03:26:51.733Z,83416.25
2022-12-03T03:28:27.272Z,83447.94
2022-12-03T03:30:01.156Z,83400.41
2022-12-03T03:31:35.849Z,83390.50
2022-12-03T03:33:10.691Z,83396.44
2022-12-03T03:34:44.512Z,83396.44
2022-12-03T03:36:21.276Z,83394.47
2022-12-03T03:37:57.533Z,83398.44
2022-12-03T03:39:31.552Z,83426.16
2022-12-03T03:41:08.146Z,83428.16
2022-12-03T03:42:42.765Z,83422.19
2022-12-03T03:44:16.757Z,83416.25
2022-12-03T03:45:52.830Z,83408.34
2022-12-03T03:47:26.507Z,83420.22
2022-12-03T03:48:59.873Z,83455.88
2022-12-03T03:50:36.561Z,83406.34
2022-12-03T03:52:12.294Z,83390.50
2022-12-03T03:53:50.878Z,83428.16
2022-12-03T03:55:27.939Z,83404.38
2022-12-03T03:57:01.663Z,83404.38
2022-12-03T03:58:39.145Z,83410.31
2022-12-03T04:00:13.474Z,83388.53
2022-12-03T04:01:47.312Z,83376.66
2022-12-03T04:03:22.545Z,83416.25
2022-12-03T04:04:56.393Z,83418.25
2022-12-03T04:06:33.091Z,83428.16
2022-12-03T04:08:07.140Z,83445.97
2022-12-03T04:09:40.580Z,83432.09
2022-12-03T04:11:33.039Z,83436.06
2022-12-03T04:13:06.525Z,83420.22
2022-12-03T04:14:39.989Z,83408.34
2022-12-03T04:16:13.616Z,83400.41
2022-12-03T04:18:07.145Z,83392.50
2022-12-03T04:19:41.053Z,83382.59
2022-12-03T04:21:38.162Z,83372.69
2022-12-03T04:23:11.754Z,83390.50
2022-12-03T04:24:45.254Z,83408.34
2022-12-03T04:26:37.163Z,83430.13
2022-12-03T04:28:29.115Z,83420.22
2022-12-03T04:30:02.544Z,83434.09
2022-12-03T04:31:55.689Z,83412.28
2022-12-03T04:33:47.761Z,83410.31
2022-12-03T04:35:47.534Z,83408.34
2022-12-03T04:37:21.474Z,83396.44
2022-12-03T04:38:55.273Z,83404.38
2022-12-03T04:40:47.157Z,83376.66
2022-12-03T04:42:20.361Z,83269.69
2022-12-03T04:44:11.990Z,83174.63
2022-12-03T04:45:45.989Z,83039.94
2022-12-03T04:47:21.755Z,82980.50
2022-12-03T04:48:55.400Z,82966.66
2022-12-03T04:50:29.025Z,82998.34
2022-12-03T04:52:02.871Z,82980.50
2022-12-03T04:53:36.430Z,83002.31
2022-12-03T04:55:12.982Z,82992.41
2022-12-03T04:56:46.905Z,82952.78
2022-12-03T04:58:20.680Z,82897.34
2022-12-03T04:59:54.301Z,82881.50
2022-12-03T05:01:31.068Z,82810.19
2022-12-03T05:03:04.785Z,82711.16
2022-12-03T05:04:38.686Z,82699.28
2022-12-03T05:06:12.406Z,82707.22
2022-12-03T05:07:48.819Z,82671.56
2022-12-03T05:09:22.813Z,82598.28
2022-12-03T05:10:56.383Z,82600.25
2022-12-03T05:12:29.689Z,82592.34
2022-12-03T05:14:03.216Z,82548.78
2022-12-03T05:15:37.167Z,82528.97
2022-12-03T05:17:14.006Z,82517.09
2022-12-03T05:18:47.482Z,82536.91
2022-12-03T05:20:39.275Z,82501.25
2022-12-03T05:22:12.990Z,82463.63
2022-12-03T05:23:46.911Z,82362.63
2022-12-03T05:25:21.444Z,82382.44
2022-12-03T05:26:55.393Z,82386.41
2022-12-03T05:28:29.039Z,82334.91
2022-12-03T05:30:02.943Z,82293.31
2022-12-03T05:31:36.701Z,82224.00
2022-12-03T05:33:11.107Z,82214.13
2022-12-03T05:34:44.516Z,82216.09
2022-12-03T05:36:18.439Z,82186.41
2022-12-03T05:37:52.413Z,82249.75
2022-12-03T05:39:26.327Z,82235.91
2022-12-03T05:41:01.782Z,82180.44
2022-12-03T05:42:53.936Z,82148.78
2022-12-03T05:44:27.150Z,82210.16
2022-12-03T05:46:00.691Z,82226.00
2022-12-03T05:47:36.178Z,82285.41
2022-12-03T05:49:11.804Z,82279.47
2022-12-03T05:50:46.592Z,82358.66
2022-12-03T05:52:21.249Z,82451.75
2022-12-03T05:53:55.085Z,82532.94
2022-12-03T05:55:29.880Z,82513.13
2022-12-03T05:57:06.152Z,82453.72
2022-12-03T05:58:39.753Z,82303.22
2022-12-03T06:00:20.273Z,82176.50
2022-12-03T06:01:53.630Z,82083.44
2022-12-03T06:03:28.007Z,82055.69
2022-12-03T06:05:08.604Z,82033.94
2022-12-03T06:06:42.677Z,82027.97
2022-12-03T06:08:16.248Z,81982.44
2022-12-03T06:09:51.684Z,82121.06
2022-12-03T06:11:25.307Z,82081.44
2022-12-03T06:12:58.844Z,82275.50
2022-12-03T06:14:32.823Z,82350.75
2022-12-03T06:16:06.849Z,82396.28
2022-12-03T06:17:40.633Z,82398.28
2022-12-03T06:19:14.391Z,82499.28
2022-12-03T06:20:48.564Z,82459.66
2022-12-03T06:22:22.766Z,82477.50
2022-12-03T06:23:56.566Z,82459.66
2022-12-03T06:25:30.339Z,82443.81
2022-12-03T06:27:03.683Z,82447.78
2022-12-03T06:28:40.055Z,82386.41
2022-12-03T06:30:15.571Z,82406.19
2022-12-03T06:31:51.745Z,82467.59
2022-12-03T06:33:25.384Z,82471.53
2022-12-03T06:34:59.694Z,82455.69
2022-12-03T06:36:35.926Z,82471.53
2022-12-03T06:38:09.391Z,82447.78
2022-12-03T06:39:43.966Z,82449.75
2022-12-03T06:41:18.012Z,82422.03
2022-12-03T06:42:51.879Z,82429.97
2022-12-03T06:44:25.676Z,82424.03
2022-12-03T06:45:59.379Z,82414.13
2022-12-03T06:47:33.180Z,82435.91
2022-12-03T06:49:06.924Z,82475.50
2022-12-03T06:50:40.745Z,82453.72
2022-12-03T06:52:15.153Z,82481.44
2022-12-03T06:53:48.402Z,82501.25
2022-12-03T06:55:21.738Z,82475.50
2022-12-03T06:56:56.038Z,82507.19
2022-12-03T06:58:29.696Z,82536.91
2022-12-03T07:00:04.173Z,82525.00
2022-12-03T07:01:37.878Z,82564.63
2022-12-03T07:03:11.438Z,82570.56
2022-12-03T07:04:52.547Z,82596.31
2022-12-03T07:06:27.072Z,82602.25
2022-12-03T07:08:01.292Z,82610.16
2022-12-03T07:09:35.375Z,82556.69
2022-12-03T07:11:31.542Z,82538.88
2022-12-03T07:13:05.117Z,82503.22
2022-12-03T07:14:39.090Z,82523.03
2022-12-03T07:16:13.376Z,82519.06
2022-12-03T07:17:49.830Z,82513.13
2022-12-03T07:19:26.381Z,82552.75
2022-12-03T07:21:04.597Z,82556.69
2022-12-03T07:22:38.521Z,82527.00
2022-12-03T07:24:12.307Z,82548.78
2022-12-03T07:25:46.059Z,82628.00
2022-12-03T07:27:19.253Z,82568.59
2022-12-03T07:28:53.537Z,82608.19
2022-12-03T07:30:29.871Z,82568.59
2022-12-03T07:32:03.560Z,82534.91
2022-12-03T07:33:39.887Z,82550.75
2022-12-03T07:35:13.811Z,82566.59
2022-12-03T07:36:47.387Z,82576.50
2022-12-03T07:38:21.522Z,82568.59
2022-12-03T07:39:55.166Z,82596.31
2022-12-03T07:41:28.901Z,82564.63
2022-12-03T07:43:02.906Z,82592.34
2022-12-03T07:44:36.489Z,82528.97
2022-12-03T07:46:09.858Z,82572.53
2022-12-03T07:47:43.597Z,82540.84
2022-12-03T07:49:17.331Z,82534.91
2022-12-03T07:50:51.082Z,82532.94
2022-12-03T07:52:24.487Z,82525.00
2022-12-03T07:54:00.759Z,82491.34
2022-12-03T07:55:34.506Z,82530.94
2022-12-03T07:57:08.013Z,82479.47
2022-12-03T07:58:41.469Z,82505.22
2022-12-03T08:00:15.953Z,82495.31
2022-12-03T08:01:50.042Z,82475.50
2022-12-03T08:03:23.596Z,82461.66
2022-12-03T08:04:57.094Z,82433.91
2022-12-03T08:06:30.481Z,82437.88
2022-12-03T08:08:07.001Z,82406.19
2022-12-03T08:09:43.706Z,82422.03
2022-12-03T08:11:16.839Z,82406.19
2022-12-03T08:12:50.236Z,82429.97
2022-12-03T08:14:27.376Z,82467.59
2022-12-03T08:16:11.350Z,82467.59
2022-12-03T08:17:47.917Z,82489.38
2022-12-03T08:19:21.331Z,82475.50
2022-12-03T08:20:55.220Z,82489.38
2022-12-03T08:22:28.811Z,82477.50
2022-12-03T08:24:18.187Z,82487.38
2022-12-03T08:25:53.073Z,82501.25
2022-12-03T08:27:26.563Z,82471.53
2022-12-03T08:29:03.247Z,82439.84
2022-12-03T08:30:37.331Z,82475.50
2022-12-03T08:32:12.916Z,82517.09
2022-12-03T08:33:50.094Z,82487.38
2022-12-03T08:35:25.866Z,82435.91
2022-12-03T08:37:06.350Z,82453.72
2022-12-03T08:38:40.105Z,82437.88
2022-12-03T08:40:28.359Z,82457.69
2022-12-03T08:42:43.493Z,82426.00
2022-12-03T08:44:17.173Z,82439.84
2022-12-03T08:45:53.441Z,82459.66
2022-12-03T08:47:26.885Z,82451.75
2022-12-03T08:49:00.629Z,82453.72
2022-12-03T08:50:41.093Z,82445.81
2022-12-03T08:52:23.517Z,82431.94
2022-12-03T08:54:05.063Z,82439.84
2022-12-03T08:55:40.529Z,82427.97
2022-12-03T08:57:25.089Z,82481.44
2022-12-03T08:58:59.983Z,82469.56
2022-12-03T09:00:33.527Z,82457.69
2022-12-03T09:02:26.418Z,82449.75
2022-12-03T09:05:01.327Z,82427.97
2022-12-03T09:06:35.930Z,82418.06
2022-12-03T09:08:09.722Z,82400.25
2022-12-03T09:09:43.325Z,82416.09
2022-12-03T09:11:16.631Z,82422.03
2022-12-03T09:12:50.089Z,82431.94
2022-12-03T09:14:24.631Z,82445.81
2022-12-03T09:15:58.065Z,82439.84
2022-12-03T09:17:32.792Z,82447.78
2022-12-03T09:19:06.734Z,82431.94
2022-12-03T09:20:40.508Z,82429.97
2022-12-03T09:22:15.840Z,82416.09
2022-12-03T09:23:49.613Z,82426.00
2022-12-03T09:25:23.252Z,82412.13
2022-12-03T09:26:57.414Z,82396.28
2022-12-03T09:28:31.485Z,82386.41
2022-12-03T09:30:06.934Z,82422.03
2022-12-03T09:31:41.096Z,82412.13
2022-12-03T09:33:14.822Z,82429.97
2022-12-03T09:34:48.543Z,82404.22
2022-12-03T09:36:22.224Z,82412.13
2022-12-03T09:37:55.704Z,82426.00
2022-12-03T09:39:29.342Z,82390.34
2022-12-03T09:41:03.101Z,82364.63
2022-12-03T09:42:37.356Z,82354.72
2022-12-03T09:44:17.451Z,82352.72
2022-12-03T09:45:51.828Z,82386.41
2022-12-03T09:47:25.575Z,82366.59
2022-12-03T09:48:59.365Z,82386.41
2022-12-03T09:50:33.384Z,82394.31
2022-12-03T09:52:08.135Z,82416.09
2022-12-03T09:53:42.293Z,82420.06
2022-12-03T09:55:24.875Z,82422.03
2022-12-03T09:57:01.378Z,82441.84
2022-12-03T09:58:35.919Z,82449.75
2022-12-03T10:00:20.989Z,82433.91
2022-12-03T10:01:55.575Z,82463.63
2022-12-03T10:03:33.117Z,82439.84
2022-12-03T10:05:06.951Z,82463.63
2022-12-03T10:06:45.604Z,82469.56
2022-12-03T10:08:22.309Z,82483.44
2022-12-03T10:09:56.350Z,82489.38
2022-12-03T10:11:31.228Z,82489.38
2022-12-03T10:13:06.700Z,82532.94
2022-12-03T10:14:41.053Z,82485.41
2022-12-03T10:16:18.229Z,82499.28
2022-12-03T10:18:07.116Z,82497.28
2022-12-03T10:19:43.193Z,82479.47
2022-12-03T10:21:26.863Z,82455.69
2022-12-03T10:23:01.255Z,82429.97
2022-12-03T10:24:36.303Z,82445.81
2022-12-03T10:26:10.194Z,82433.91
2022-12-03T10:27:46.066Z,82449.75
2022-12-03T10:29:33.232Z,82449.75
2022-12-03T10:31:10.657Z,82437.88
2022-12-03T10:32:50.069Z,82437.88
2022-12-03T10:34:32.647Z,82457.69
2022-12-03T10:36:32.745Z,82429.97
2022-12-03T10:38:08.411Z,82433.91
2022-12-03T10:40:01.331Z,82463.63
2022-12-03T10:41:36.708Z,82491.34
2022-12-03T10:43:19.170Z,82479.47
2022-12-03T10:45:15.948Z,82493.34
2022-12-03T10:47:13.459Z,82491.34
2022-12-03T10:49:18.617Z,82485.41
2022-12-03T10:50:57.819Z,82501.25
2022-12-03T10:52:31.883Z,82501.25
2022-12-03T10:54:27.018Z,82491.34
2022-12-03T10:56:03.878Z,82493.34
2022-12-03T10:57:40.000Z,82521.06
2022-12-03T10:59:22.615Z,82534.91
2022-12-03T11:00:58.290Z,82532.94
2022-12-03T11:02:32.013Z,82548.78
2022-12-03T11:04:06.374Z,82548.78
2022-12-03T11:05:43.533Z,82558.69
2022-12-03T11:07:20.479Z,82558.69
2022-12-03T11:09:00.429Z,82580.47
2022-12-03T11:10:37.681Z,82580.47
2022-12-03T11:12:21.324Z,82602.25
2022-12-03T11:14:02.729Z,82592.34
2022-12-03T11:15:46.483Z,82614.13
2022-12-03T11:17:44.293Z,82614.13
2022-12-03T11:19:37.926Z,82628.00
2022-12-03T11:21:15.808Z,82618.09
2022-12-03T11:22:53.598Z,82637.91
2022-12-03T11:24:26.797Z,82655.72
2022-12-03T11:26:00.096Z,82659.69
2022-12-03T11:27:34.696Z,82665.63
2022-12-03T11:29:15.175Z,82691.38
2022-12-03T11:30:54.550Z,82691.38
2022-12-03T11:32:41.262Z,82675.53
2022-12-03T11:34:23.386Z,82685.44
2022-12-03T11:36:05.999Z,82695.31
2022-12-03T11:37:39.324Z,82723.06
2022-12-03T11:39:12.898Z,82723.06
2022-12-03T11:41:13.473Z,82746.81
2022-12-03T11:42:48.487Z,82758.69
2022-12-03T11:44:33.545Z,82776.53
2022-12-03T11:46:11.294Z,82768.59
2022-12-03T11:48:00.444Z,82782.47
2022-12-03T11:49:38.297Z,82780.47
2022-12-03T11:51:17.822Z,82768.59
2022-12-03T11:52:56.793Z,82782.47
2022-12-03T11:54:35.628Z,82802.28
2022-12-03T11:56:14.914Z,82790.38
2022-12-03T11:57:48.406Z,82794.34
2022-12-03T11:59:23.444Z,82792.38
2022-12-03T12:00:59.416Z,82794.34
2022-12-03T12:02:34.403Z,82812.16
2022-12-03T12:04:27.749Z,82820.09
2022-12-03T12:06:02.183Z,82798.31
2022-12-03T12:07:37.514Z,82845.84
2022-12-03T12:09:11.644Z,82833.97
2022-12-03T12:10:50.112Z,82841.88
2022-12-03T12:12:40.452Z,82855.75
2022-12-03T12:14:14.435Z,82857.72
2022-12-03T12:15:47.793Z,82865.66
2022-12-03T12:17:35.860Z,82871.59
2022-12-03T12:19:54.058Z,82867.63
2022-12-03T12:21:51.189Z,82859.69
2022-12-03T12:23:29.727Z,82942.88
2022-12-03T12:25:41.005Z,82877.53
2022-12-03T12:27:18.791Z,82881.50
2022-12-03T12:28:55.322Z,82885.44
2022-12-03T12:30:28.787Z,82885.44
2022-12-03T12:32:16.186Z,82893.38
2022-12-03T12:33:49.897Z,82905.25
2022-12-03T12:35:28.122Z,82885.44
2022-12-03T12:37:02.347Z,82877.53
2022-12-03T12:38:35.775Z,82883.47
2022-12-03T12:40:16.407Z,82877.53
2022-12-03T12:41:51.174Z,82897.34
2022-12-03T12:43:27.646Z,82903.28
2022-12-03T12:45:22.833Z,82909.22
2022-12-03T12:46:58.434Z,82911.19
2022-12-03T12:48:40.638Z,82968.63
2022-12-03T12:50:14.695Z,82923.06
2022-12-03T12:51:51.129Z,82929.03
2022-12-03T12:53:27.729Z,82940.91
2022-12-03T12:55:04.972Z,82932.97
2022-12-03T12:56:39.641Z,82938.91
2022-12-03T12:58:17.886Z,82929.03
2022-12-03T12:59:52.897Z,82940.91
2022-12-03T13:01:30.040Z,82946.84
2022-12-03T13:03:05.637Z,82948.81
2022-12-03T13:04:40.633Z,82956.75
2022-12-03T13:06:16.778Z,82944.88
2022-12-03T13:07:53.199Z,82944.88
2022-12-03T13:09:27.613Z,82952.78
2022-12-03T13:11:02.860Z,82956.75
2022-12-03T13:12:37.450Z,82966.66
2022-12-03T13:14:24.190Z,82940.91
2022-12-03T13:16:12.008Z,82950.81
2022-12-03T13:17:45.299Z,82972.59
2022-12-03T13:19:26.133Z,82984.47
2022-12-03T13:21:00.107Z,82976.56
2022-12-03T13:22:34.009Z,82988.44
2022-12-03T13:24:44.108Z,82994.38
2022-12-03T13:26:38.658Z,83034.00
2022-12-03T13:28:14.517Z,83008.25
2022-12-03T13:30:03.026Z,83008.25
2022-12-03T13:31:43.786Z,83024.09
2022-12-03T13:33:27.404Z,83022.09
2022-12-03T13:35:08.472Z,83012.19
2022-12-03T13:36:50.566Z,83016.16
2022-12-03T13:38:28.920Z,83069.63
2022-12-03T13:40:32.182Z,83020.13
2022-12-03T13:42:27.715Z,83039.94
2022-12-03T13:44:01.709Z,83083.50
2022-12-03T13:45:44.387Z,83043.88
2022-12-03T13:47:21.768Z,83079.53
2022-12-03T13:49:00.194Z,83043.88
2022-12-03T13:50:37.801Z,83026.06
2022-12-03T13:52:17.237Z,83032.00
2022-12-03T13:53:50.703Z,83034.00
2022-12-03T13:55:29.631Z,83020.13
2022-12-03T13:57:06.450Z,83030.03
2022-12-03T13:58:40.297Z,83041.91
2022-12-03T14:00:14.329Z,83024.09
2022-12-03T14:01:47.789Z,83028.03
2022-12-03T14:03:21.914Z,83030.03
2022-12-03T14:05:00.077Z,83039.94
2022-12-03T14:06:34.082Z,83024.09
2022-12-03T14:08:07.393Z,83024.09
2022-12-03T14:09:41.212Z,83008.25
2022-12-03T14:11:34.641Z,83006.25
2022-12-03T14:13:08.103Z,83018.16
2022-12-03T14:14:41.817Z,83030.03
2022-12-03T14:16:15.634Z,83006.25
2022-12-03T14:17:49.342Z,82996.34
2022-12-03T14:19:22.866Z,83004.28
2022-12-03T14:20:56.292Z,83022.09
2022-12-03T14:22:30.789Z,83006.25
2022-12-03T14:24:04.449Z,83004.28
2022-12-03T14:25:39.695Z,83043.88
2022-12-03T14:27:13.292Z,83010.22
2022-12-03T14:28:46.823Z,83008.25
2022-12-03T14:30:20.548Z,83010.22
2022-12-03T14:31:53.939Z,83020.13
2022-12-03T14:33:27.909Z,83012.19
2022-12-03T14:35:06.581Z,83016.16
2022-12-03T14:36:46.512Z,83012.19
2022-12-03T14:38:19.876Z,83012.19
2022-12-03T14:39:53.742Z,83014.19
2022-12-03T14:41:46.395Z,83012.19
2022-12-03T14:43:20.106Z,83020.13
2022-12-03T14:44:53.675Z,83024.09
2022-12-03T14:46:27.346Z,83022.09
2022-12-03T14:48:00.978Z,83010.22
2022-12-03T14:49:34.806Z,83000.31
2022-12-03T14:51:08.518Z,83043.88
2022-12-03T14:52:41.890Z,83006.25
2022-12-03T14:54:15.421Z,83000.31
2022-12-03T14:55:48.812Z,82988.44
2022-12-03T14:57:22.525Z,82984.47
2022-12-03T14:58:56.138Z,82980.50
2022-12-03T15:00:29.682Z,82986.47
2022-12-03T15:02:03.623Z,82992.41
2022-12-03T15:03:37.388Z,83010.22
2022-12-03T15:05:11.418Z,83016.16
2022-12-03T15:06:45.400Z,83016.16
2022-12-03T15:08:19.868Z,83010.22
2022-12-03T15:09:53.627Z,82996.34
2022-12-03T15:11:27.848Z,82992.41
2022-12-03T15:13:01.482Z,82966.66
2022-12-03T15:14:35.400Z,82970.63
2022-12-03T15:16:09.706Z,82988.44
2022-12-03T15:17:45.910Z,82968.63
2022-12-03T15:19:19.190Z,82966.66
2022-12-03T15:20:53.131Z,82966.66
2022-12-03T15:22:26.640Z,82956.75
2022-12-03T15:24:00.448Z,82948.81
2022-12-03T15:25:34.944Z,82936.94
2022-12-03T15:27:08.530Z,82925.06
2022-12-03T15:28:46.720Z,82919.13
2022-12-03T15:30:22.026Z,82917.13
2022-12-03T15:31:55.647Z,82921.09
2022-12-03T15:33:30.448Z,82909.22
2022-12-03T15:35:03.864Z,82909.22
2022-12-03T15:36:37.261Z,82921.09
2022-12-03T15:38:12.113Z,82911.19
2022-12-03T15:39:52.760Z,82913.19
2022-12-03T15:41:29.607Z,82919.13
2022-12-03T15:43:03.370Z,82905.25
2022-12-03T15:44:36.941Z,82905.25
2022-12-03T15:46:10.617Z,82913.19
2022-12-03T15:47:44.579Z,82897.34
2022-12-03T15:49:18.327Z,82921.09
2022-12-03T15:50:51.742Z,82905.25
2022-12-03T15:52:26.407Z,82881.50
2022-12-03T15:54:00.022Z,82853.75
2022-12-03T15:55:33.212Z,82830.00
2022-12-03T15:57:06.958Z,82806.22
2022-12-03T15:58:41.486Z,82766.63
2022-12-03T16:00:16.167Z,82736.91
2022-12-03T16:01:52.123Z,82723.06
2022-12-03T16:03:25.838Z,82703.25
2022-12-03T16:05:04.884Z,82689.38
2022-12-03T16:06:39.955Z,82679.47
2022-12-03T16:08:13.445Z,82683.44
2022-12-03T16:09:47.406Z,82677.50
2022-12-03T16:11:20.948Z,82675.53
2022-12-03T16:12:54.999Z,82679.47
2022-12-03T16:14:28.573Z,82727.00
2022-12-03T16:16:02.330Z,82740.88
2022-12-03T16:17:36.327Z,82786.44
2022-12-03T16:19:10.099Z,82806.22
2022-12-03T16:20:43.787Z,82875.53
2022-12-03T16:22:17.668Z,82849.81
2022-12-03T16:23:51.304Z,82849.81
2022-12-03T16:25:24.693Z,82869.59
2022-12-03T16:26:58.387Z,82889.41
2022-12-03T16:28:32.406Z,82899.31
2022-12-03T16:30:07.900Z,82913.19
2022-12-03T16:31:41.661Z,82923.06
2022-12-03T16:33:14.932Z,82932.97
2022-12-03T16:34:48.524Z,82929.03
2022-12-03T16:36:22.174Z,82960.72
2022-12-03T16:37:57.529Z,82958.72
2022-12-03T16:39:31.676Z,82960.72
2022-12-03T16:41:05.107Z,82954.78
2022-12-03T16:42:38.770Z,82968.63
2022-12-03T16:44:20.604Z,82960.72
2022-12-03T16:45:56.927Z,82956.75
2022-12-03T16:47:34.110Z,82940.91
2022-12-03T16:49:08.422Z,82901.28
2022-12-03T16:50:42.426Z,82873.56
2022-12-03T16:52:18.710Z,82833.97
2022-12-03T16:53:53.091Z,82800.28
2022-12-03T16:55:26.498Z,82754.75
2022-12-03T16:57:00.133Z,82721.06
2022-12-03T16:58:33.812Z,82695.31
2022-12-03T17:00:08.291Z,82685.44
2022-12-03T17:01:42.439Z,82677.50
2022-12-03T17:03:18.244Z,82677.50
2022-12-03T17:04:51.954Z,82671.56
2022-12-03T17:06:25.863Z,82663.63
2022-12-03T17:07:59.909Z,82659.69
2022-12-03T17:09:33.858Z,82653.72
2022-12-03T17:11:07.372Z,82651.75
2022-12-03T17:13:08.152Z,82645.81
2022-12-03T17:14:34.728Z,82645.81
2022-12-03T17:16:08.121Z,82645.81
2022-12-03T17:17:41.755Z,82645.81
2022-12-03T17:19:16.692Z,82651.75
2022-12-03T17:20:50.518Z,82653.72
2022-12-03T17:22:24.136Z,82651.75
2022-12-03T17:23:57.752Z,82647.78
2022-12-03T17:25:35.089Z,82653.72
2022-12-03T17:27:08.597Z,82651.75
2022-12-03T17:28:41.978Z,82643.84
2022-12-03T17:30:16.190Z,82639.88
2022-12-03T17:31:53.177Z,82639.88
2022-12-03T17:33:27.076Z,82637.91
2022-12-03T17:34:59.922Z,82635.91
2022-12-03T17:36:33.520Z,82631.94
2022-12-03T17:38:07.349Z,82635.91
2022-12-03T17:39:43.023Z,82639.88
2022-12-03T17:41:16.467Z,82641.84
2022-12-03T17:42:49.986Z,82639.88
2022-12-03T17:44:25.317Z,82641.84
2022-12-03T17:46:01.037Z,82647.78
2022-12-03T17:47:34.768Z,82645.81
2022-12-03T17:49:08.517Z,82647.78
2022-12-03T17:50:42.163Z,82645.81
2022-12-03T17:52:15.628Z,82647.78
2022-12-03T17:53:49.212Z,82643.84
2022-12-03T17:55:33.522Z,82639.88
2022-12-03T17:57:08.057Z,82643.84
2022-12-03T17:58:42.172Z,82641.84
2022-12-03T18:00:15.914Z,82655.72
2022-12-03T18:01:49.071Z,82653.72
2022-12-03T18:03:22.537Z,82653.72
2022-12-03T18:04:56.388Z,82655.72
2022-12-03T18:06:29.752Z,82671.56
2022-12-03T18:08:03.802Z,82687.41
2022-12-03T18:09:52.890Z,82703.25
2022-12-03T18:11:26.943Z,82738.91
2022-12-03T18:13:02.123Z,82746.81
2022-12-03T18:14:35.993Z,82766.63
2022-12-03T18:16:11.355Z,82798.31
2022-12-03T18:17:46.829Z,82847.81
2022-12-03T18:19:23.215Z,82869.59
2022-12-03T18:21:01.247Z,82885.44
2022-12-03T18:22:34.883Z,82897.34
2022-12-03T18:24:09.169Z,82903.28
2022-12-03T18:25:43.250Z,82913.19
2022-12-03T18:27:16.726Z,82921.09
2022-12-03T18:28:50.715Z,82940.91
2022-12-03T18:30:24.501Z,82940.91
2022-12-03T18:31:58.189Z,82958.72
2022-12-03T18:33:31.719Z,82956.75
2022-12-03T18:35:05.740Z,82972.59
2022-12-03T18:36:39.956Z,82996.34
2022-12-03T18:38:15.610Z,83000.31
2022-12-03T18:39:49.032Z,83049.84
2022-12-03T18:41:27.383Z,83071.63
2022-12-03T18:43:01.298Z,83079.53
2022-12-03T18:44:37.655Z,83099.34
2022-12-03T18:46:45.000Z,83097.38
2022-12-03T18:48:18.596Z,83135.00
2022-12-03T18:49:55.203Z,83192.44
2022-12-03T18:51:29.704Z,83142.91
2022-12-03T18:53:03.414Z,83138.97
2022-12-03T18:54:37.266Z,83135.00
2022-12-03T18:56:12.642Z,83121.13